sensor_id;sensor_type;location;lat;lon;timestamp;temperature;humidity
20171;DHT22;10245;51.344;6.620;2023-03-15T00:01:58;3.80;79.50
20171;DHT22;10245;51.344;6.620;2023-03-15T00:04:22;3.80;80.30
20171;DHT22;10245;51.344;6.620;2023-03-15T00:06:47;3.80;80.70
20171;DHT22;10245;51.344;6.620;2023-03-15T00:09:11;3.70;81.70
20171;DHT22;10245;51.344;6.620;2023-03-15T00:11:34;3.70;82.50
20171;DHT22;10245;51.344;6.620;2023-03-15T00:13:58;3.70;83.20
20171;DHT22;10245;51.344;6.620;2023-03-15T00:16:24;3.60;83.80
20171;DHT22;10245;51.344;6.620;2023-03-15T00:18:48;3.50;85.20
20171;DHT22;10245;51.344;6.620;2023-03-15T00:21:11;3.30;86.00
20171;DHT22;10245;51.344;6.620;2023-03-15T00:23:35;3.00;87.50
20171;DHT22;10245;51.344;6.620;2023-03-15T00:25:58;2.70;88.20
20171;DHT22;10245;51.344;6.620;2023-03-15T00:28:21;2.60;89.00
20171;DHT22;10245;51.344;6.620;2023-03-15T00:30:46;2.50;89.60
20171;DHT22;10245;51.344;6.620;2023-03-15T00:33:11;2.30;90.20
20171;DHT22;10245;51.344;6.620;2023-03-15T00:35:38;2.20;90.50
20171;DHT22;10245;51.344;6.620;2023-03-15T00:38:01;2.30;90.90
20171;DHT22;10245;51.344;6.620;2023-03-15T00:40:26;2.30;90.90
20171;DHT22;10245;51.344;6.620;2023-03-15T00:42:49;2.20;91.10
20171;DHT22;10245;51.344;6.620;2023-03-15T00:45:13;2.20;91.10
20171;DHT22;10245;51.344;6.620;2023-03-15T00:47:36;2.20;91.20
20171;DHT22;10245;51.344;6.620;2023-03-15T00:50:01;2.30;91.20
20171;DHT22;10245;51.344;6.620;2023-03-15T00:52:24;2.30;91.20
20171;DHT22;10245;51.344;6.620;2023-03-15T00:54:51;2.20;91.20
20171;DHT22;10245;51.344;6.620;2023-03-15T00:57:15;2.30;91.40
20171;DHT22;10245;51.344;6.620;2023-03-15T00:59:38;2.30;91.40
20171;DHT22;10245;51.344;6.620;2023-03-15T01:02:02;2.30;91.30
20171;DHT22;10245;51.344;6.620;2023-03-15T01:04:28;2.30;91.20
20171;DHT22;10245;51.344;6.620;2023-03-15T01:06:53;2.20;91.10
20171;DHT22;10245;51.344;6.620;2023-03-15T01:09:16;2.20;91.10
20171;DHT22;10245;51.344;6.620;2023-03-15T01:11:40;2.10;91.10
20171;DHT22;10245;51.344;6.620;2023-03-15T01:14:04;2.10;91.20
20171;DHT22;10245;51.344;6.620;2023-03-15T01:16:30;2.00;91.30
20171;DHT22;10245;51.344;6.620;2023-03-15T01:18:54;2.00;91.50
20171;DHT22;10245;51.344;6.620;2023-03-15T01:21:20;2.00;91.60
20171;DHT22;10245;51.344;6.620;2023-03-15T01:23:45;2.10;91.60
20171;DHT22;10245;51.344;6.620;2023-03-15T01:26:10;2.10;91.70
20171;DHT22;10245;51.344;6.620;2023-03-15T01:28:35;2.00;91.90
20171;DHT22;10245;51.344;6.620;2023-03-15T01:30:58;2.10;92.00
20171;DHT22;10245;51.344;6.620;2023-03-15T01:33:22;2.00;92.10
20171;DHT22;10245;51.344;6.620;2023-03-15T01:35:46;2.00;92.10
20171;DHT22;10245;51.344;6.620;2023-03-15T01:38:10;2.00;92.20
20171;DHT22;10245;51.344;6.620;2023-03-15T01:40:39;2.00;92.20
20171;DHT22;10245;51.344;6.620;2023-03-15T01:43:17;1.90;92.40
20171;DHT22;10245;51.344;6.620;2023-03-15T01:49:01;1.90;92.80
20171;DHT22;10245;51.344;6.620;2023-03-15T01:51:35;2.00;92.90
20171;DHT22;10245;51.344;6.620;2023-03-15T01:54:03;2.00;93.00
20171;DHT22;10245;51.344;6.620;2023-03-15T01:56:31;2.00;92.80
20171;DHT22;10245;51.344;6.620;2023-03-15T01:58:58;2.10;92.80
20171;DHT22;10245;51.344;6.620;2023-03-15T02:01:22;2.10;92.70
20171;DHT22;10245;51.344;6.620;2023-03-15T02:03:51;2.10;92.80
20171;DHT22;10245;51.344;6.620;2023-03-15T02:06:22;2.20;92.80
20171;DHT22;10245;51.344;6.620;2023-03-15T02:08:52;2.20;92.70
20171;DHT22;10245;51.344;6.620;2023-03-15T02:11:20;2.20;92.70
20171;DHT22;10245;51.344;6.620;2023-03-15T02:13:48;2.30;92.80
20171;DHT22;10245;51.344;6.620;2023-03-15T02:16:12;2.30;92.80
20171;DHT22;10245;51.344;6.620;2023-03-15T02:18:40;2.40;92.70
20171;DHT22;10245;51.344;6.620;2023-03-15T02:21:13;2.40;92.80
20171;DHT22;10245;51.344;6.620;2023-03-15T02:23:43;2.40;92.80
20171;DHT22;10245;51.344;6.620;2023-03-15T02:26:16;2.40;92.80
20171;DHT22;10245;51.344;6.620;2023-03-15T02:28:45;2.50;92.80
20171;DHT22;10245;51.344;6.620;2023-03-15T02:31:09;2.50;92.70
20171;DHT22;10245;51.344;6.620;2023-03-15T02:33:38;2.50;92.80
20171;DHT22;10245;51.344;6.620;2023-03-15T02:36:16;2.70;92.90
20171;DHT22;10245;51.344;6.620;2023-03-15T02:38:41;2.80;92.80
20171;DHT22;10245;51.344;6.620;2023-03-15T02:41:06;2.90;92.60
20171;DHT22;10245;51.344;6.620;2023-03-15T02:43:30;2.90;92.60
20171;DHT22;10245;51.344;6.620;2023-03-15T02:45:57;2.90;92.90
20171;DHT22;10245;51.344;6.620;2023-03-15T02:48:21;2.90;92.80
20171;DHT22;10245;51.344;6.620;2023-03-15T02:50:45;3.00;92.40
20171;DHT22;10245;51.344;6.620;2023-03-15T02:53:09;3.00;92.30
20171;DHT22;10245;51.344;6.620;2023-03-15T02:55:33;3.00;92.40
20171;DHT22;10245;51.344;6.620;2023-03-15T02:57:56;3.00;92.40
20171;DHT22;10245;51.344;6.620;2023-03-15T03:00:21;3.00;92.30
20171;DHT22;10245;51.344;6.620;2023-03-15T03:02:47;3.00;92.20
20171;DHT22;10245;51.344;6.620;2023-03-15T03:05:11;3.00;92.40
20171;DHT22;10245;51.344;6.620;2023-03-15T03:07:36;2.90;92.30
20171;DHT22;10245;51.344;6.620;2023-03-15T03:10:02;2.90;92.30
20171;DHT22;10245;51.344;6.620;2023-03-15T03:12:34;2.70;92.10
20171;DHT22;10245;51.344;6.620;2023-03-15T03:14:58;2.70;92.20
20171;DHT22;10245;51.344;6.620;2023-03-15T03:17:24;2.70;92.40
20171;DHT22;10245;51.344;6.620;2023-03-15T03:19:49;2.70;92.50
20171;DHT22;10245;51.344;6.620;2023-03-15T03:22:19;2.70;92.60
20171;DHT22;10245;51.344;6.620;2023-03-15T03:24:45;2.50;92.60
20171;DHT22;10245;51.344;6.620;2023-03-15T03:27:10;2.50;92.70
20171;DHT22;10245;51.344;6.620;2023-03-15T03:29:37;2.50;92.70
20171;DHT22;10245;51.344;6.620;2023-03-15T03:32:01;2.40;92.80
20171;DHT22;10245;51.344;6.620;2023-03-15T03:34:25;2.20;92.70
20171;DHT22;10245;51.344;6.620;2023-03-15T03:36:51;2.00;93.00
20171;DHT22;10245;51.344;6.620;2023-03-15T03:39:26;2.20;93.10
20171;DHT22;10245;51.344;6.620;2023-03-15T03:41:54;2.10;93.00
20171;DHT22;10245;51.344;6.620;2023-03-15T03:44:17;2.10;93.00
20171;DHT22;10245;51.344;6.620;2023-03-15T03:46:40;2.10;92.90
20171;DHT22;10245;51.344;6.620;2023-03-15T03:49:06;2.00;93.10
20171;DHT22;10245;51.344;6.620;2023-03-15T03:51:29;2.00;93.40
20171;DHT22;10245;51.344;6.620;2023-03-15T03:53:56;2.00;93.10
20171;DHT22;10245;51.344;6.620;2023-03-15T03:56:19;1.80;93.10
20171;DHT22;10245;51.344;6.620;2023-03-15T03:58:42;1.60;92.90
20171;DHT22;10245;51.344;6.620;2023-03-15T04:01:11;1.60;93.00
20171;DHT22;10245;51.344;6.620;2023-03-15T04:03:34;1.50;93.20
20171;DHT22;10245;51.344;6.620;2023-03-15T04:06:02;1.60;93.30
20171;DHT22;10245;51.344;6.620;2023-03-15T04:08:31;1.50;93.30
20171;DHT22;10245;51.344;6.620;2023-03-15T04:10:56;1.60;93.40
20171;DHT22;10245;51.344;6.620;2023-03-15T04:13:23;1.60;93.50
20171;DHT22;10245;51.344;6.620;2023-03-15T04:15:52;1.50;93.50
20171;DHT22;10245;51.344;6.620;2023-03-15T04:18:21;1.60;93.50
20171;DHT22;10245;51.344;6.620;2023-03-15T04:20:46;1.60;93.60
20171;DHT22;10245;51.344;6.620;2023-03-15T04:23:12;1.60;93.60
20171;DHT22;10245;51.344;6.620;2023-03-15T04:25:57;1.70;93.80
20171;DHT22;10245;51.344;6.620;2023-03-15T04:28:37;1.70;93.80
20171;DHT22;10245;51.344;6.620;2023-03-15T04:31:18;1.80;93.80
20171;DHT22;10245;51.344;6.620;2023-03-15T04:34:00;1.90;93.70
20171;DHT22;10245;51.344;6.620;2023-03-15T04:36:42;1.90;93.70
20171;DHT22;10245;51.344;6.620;2023-03-15T04:39:26;2.00;93.70
20171;DHT22;10245;51.344;6.620;2023-03-15T04:41:57;1.90;93.50
20171;DHT22;10245;51.344;6.620;2023-03-15T04:44:38;2.00;93.70
20171;DHT22;10245;51.344;6.620;2023-03-15T04:47:22;1.90;93.60
20171;DHT22;10245;51.344;6.620;2023-03-15T04:50:11;1.90;93.40
20171;DHT22;10245;51.344;6.620;2023-03-15T04:52:53;1.80;93.40
20171;DHT22;10245;51.344;6.620;2023-03-15T04:55:33;1.80;93.50
20171;DHT22;10245;51.344;6.620;2023-03-15T04:58:21;1.80;93.60
20171;DHT22;10245;51.344;6.620;2023-03-15T05:01:05;1.90;93.70
20171;DHT22;10245;51.344;6.620;2023-03-15T05:03:44;1.90;93.70
20171;DHT22;10245;51.344;6.620;2023-03-15T05:06:34;2.00;93.90
20171;DHT22;10245;51.344;6.620;2023-03-15T05:09:12;2.00;93.90
20171;DHT22;10245;51.344;6.620;2023-03-15T05:12:09;2.00;94.00
20171;DHT22;10245;51.344;6.620;2023-03-15T05:14:40;2.10;94.00
20171;DHT22;10245;51.344;6.620;2023-03-15T05:17:25;2.00;93.80
20171;DHT22;10245;51.344;6.620;2023-03-15T05:20:08;2.10;93.90
20171;DHT22;10245;51.344;6.620;2023-03-15T05:22:36;2.10;93.80
20171;DHT22;10245;51.344;6.620;2023-03-15T05:24:59;2.00;93.70
20171;DHT22;10245;51.344;6.620;2023-03-15T05:27:41;2.00;93.80
20171;DHT22;10245;51.344;6.620;2023-03-15T05:30:26;2.10;93.80
20171;DHT22;10245;51.344;6.620;2023-03-15T05:33:28;2.10;93.80
20171;DHT22;10245;51.344;6.620;2023-03-15T05:36:26;2.10;93.80
20171;DHT22;10245;51.344;6.620;2023-03-15T05:39:11;2.10;93.70
20171;DHT22;10245;51.344;6.620;2023-03-15T05:41:55;2.20;93.70
20171;DHT22;10245;51.344;6.620;2023-03-15T05:44:37;2.10;93.70
20171;DHT22;10245;51.344;6.620;2023-03-15T05:47:22;2.10;93.70
20171;DHT22;10245;51.344;6.620;2023-03-15T05:50:03;2.10;93.70
20171;DHT22;10245;51.344;6.620;2023-03-15T05:52:46;2.20;93.70
20171;DHT22;10245;51.344;6.620;2023-03-15T05:55:24;2.20;93.70
20171;DHT22;10245;51.344;6.620;2023-03-15T05:57:59;2.20;93.70
20171;DHT22;10245;51.344;6.620;2023-03-15T06:00:52;2.20;93.60
20171;DHT22;10245;51.344;6.620;2023-03-15T06:03:34;2.30;93.60
20171;DHT22;10245;51.344;6.620;2023-03-15T06:06:07;2.30;93.50
20171;DHT22;10245;51.344;6.620;2023-03-15T06:08:34;2.20;93.50
20171;DHT22;10245;51.344;6.620;2023-03-15T06:10:57;2.30;93.50
20171;DHT22;10245;51.344;6.620;2023-03-15T06:13:20;2.30;93.40
20171;DHT22;10245;51.344;6.620;2023-03-15T06:15:45;2.40;93.50
20171;DHT22;10245;51.344;6.620;2023-03-15T06:18:10;2.30;93.30
20171;DHT22;10245;51.344;6.620;2023-03-15T06:20:36;2.30;93.40
20171;DHT22;10245;51.344;6.620;2023-03-15T06:23:04;2.30;93.50
20171;DHT22;10245;51.344;6.620;2023-03-15T06:25:35;2.40;93.40
20171;DHT22;10245;51.344;6.620;2023-03-15T06:27:59;2.40;93.40
20171;DHT22;10245;51.344;6.620;2023-03-15T06:30:22;2.40;93.40
20171;DHT22;10245;51.344;6.620;2023-03-15T06:32:50;2.40;93.40
20171;DHT22;10245;51.344;6.620;2023-03-15T06:35:14;2.40;93.30
20171;DHT22;10245;51.344;6.620;2023-03-15T06:37:38;2.40;93.40
20171;DHT22;10245;51.344;6.620;2023-03-15T06:40:04;2.50;93.30
20171;DHT22;10245;51.344;6.620;2023-03-15T06:42:30;2.50;93.20
20171;DHT22;10245;51.344;6.620;2023-03-15T06:44:53;2.50;93.10
20171;DHT22;10245;51.344;6.620;2023-03-15T06:47:17;2.50;93.30
20171;DHT22;10245;51.344;6.620;2023-03-15T06:49:41;2.50;93.30
20171;DHT22;10245;51.344;6.620;2023-03-15T06:52:06;2.50;93.10
20171;DHT22;10245;51.344;6.620;2023-03-15T06:54:31;2.50;93.20
20171;DHT22;10245;51.344;6.620;2023-03-15T06:56:54;2.50;93.00
20171;DHT22;10245;51.344;6.620;2023-03-15T06:59:18;2.60;93.10
20171;DHT22;10245;51.344;6.620;2023-03-15T07:01:42;2.60;93.20
20171;DHT22;10245;51.344;6.620;2023-03-15T07:04:05;2.70;93.10
20171;DHT22;10245;51.344;6.620;2023-03-15T07:06:30;2.80;93.10
20171;DHT22;10245;51.344;6.620;2023-03-15T07:08:53;2.70;93.10
20171;DHT22;10245;51.344;6.620;2023-03-15T07:11:18;2.80;93.20
20171;DHT22;10245;51.344;6.620;2023-03-15T07:13:42;2.70;92.90
20171;DHT22;10245;51.344;6.620;2023-03-15T07:16:06;2.70;92.80
20171;DHT22;10245;51.344;6.620;2023-03-15T07:18:31;2.90;93.00
20171;DHT22;10245;51.344;6.620;2023-03-15T07:20:57;2.80;92.50
20171;DHT22;10245;51.344;6.620;2023-03-15T07:23:21;2.80;92.60
20171;DHT22;10245;51.344;6.620;2023-03-15T07:25:46;2.80;92.60
20171;DHT22;10245;51.344;6.620;2023-03-15T07:28:17;2.90;92.70
20171;DHT22;10245;51.344;6.620;2023-03-15T07:30:40;2.80;92.50
20171;DHT22;10245;51.344;6.620;2023-03-15T07:33:04;2.90;92.50
20171;DHT22;10245;51.344;6.620;2023-03-15T07:35:27;2.90;92.40
20171;DHT22;10245;51.344;6.620;2023-03-15T07:37:51;2.90;91.90
20171;DHT22;10245;51.344;6.620;2023-03-15T07:40:14;3.00;91.90
20171;DHT22;10245;51.344;6.620;2023-03-15T07:42:38;3.10;92.10
20171;DHT22;10245;51.344;6.620;2023-03-15T07:45:04;3.20;92.00
20171;DHT22;10245;51.344;6.620;2023-03-15T07:47:28;3.10;91.60
20171;DHT22;10245;51.344;6.620;2023-03-15T07:49:52;3.10;91.30
20171;DHT22;10245;51.344;6.620;2023-03-15T07:52:15;3.20;91.40
20171;DHT22;10245;51.344;6.620;2023-03-15T07:54:39;3.40;91.60
20171;DHT22;10245;51.344;6.620;2023-03-15T07:57:03;3.20;91.30
20171;DHT22;10245;51.344;6.620;2023-03-15T07:59:27;3.20;91.60
20171;DHT22;10245;51.344;6.620;2023-03-15T08:01:51;3.20;91.40
20171;DHT22;10245;51.344;6.620;2023-03-15T08:04:15;3.10;91.00
20171;DHT22;10245;51.344;6.620;2023-03-15T08:06:38;3.20;91.00
20171;DHT22;10245;51.344;6.620;2023-03-15T08:09:02;3.00;90.60
20171;DHT22;10245;51.344;6.620;2023-03-15T08:11:26;3.00;90.90
20171;DHT22;10245;51.344;6.620;2023-03-15T08:13:49;3.10;90.90
20171;DHT22;10245;51.344;6.620;2023-03-15T08:16:13;3.50;91.00
20171;DHT22;10245;51.344;6.620;2023-03-15T08:18:37;3.40;90.50
20171;DHT22;10245;51.344;6.620;2023-03-15T08:21:01;3.50;90.30
20171;DHT22;10245;51.344;6.620;2023-03-15T08:23:25;3.30;89.60
20171;DHT22;10245;51.344;6.620;2023-03-15T08:25:48;3.30;89.50
20171;DHT22;10245;51.344;6.620;2023-03-15T08:28:12;3.40;89.70
20171;DHT22;10245;51.344;6.620;2023-03-15T08:30:36;3.50;89.30
20171;DHT22;10245;51.344;6.620;2023-03-15T08:32:59;3.80;89.40
20171;DHT22;10245;51.344;6.620;2023-03-15T08:35:24;4.00;89.00
20171;DHT22;10245;51.344;6.620;2023-03-15T08:37:47;3.80;88.50
20171;DHT22;10245;51.344;6.620;2023-03-15T08:40:11;3.60;88.80
20171;DHT22;10245;51.344;6.620;2023-03-15T08:42:36;3.70;88.50
20171;DHT22;10245;51.344;6.620;2023-03-15T08:44:59;3.90;90.10
20171;DHT22;10245;51.344;6.620;2023-03-15T08:47:23;3.80;88.90
20171;DHT22;10245;51.344;6.620;2023-03-15T08:49:46;3.80;88.50
20171;DHT22;10245;51.344;6.620;2023-03-15T08:52:11;3.80;88.00
20171;DHT22;10245;51.344;6.620;2023-03-15T08:54:36;3.80;87.10
20171;DHT22;10245;51.344;6.620;2023-03-15T08:56:59;4.10;87.40
20171;DHT22;10245;51.344;6.620;2023-03-15T08:59:22;4.20;87.00
20171;DHT22;10245;51.344;6.620;2023-03-15T09:01:53;4.00;88.00
20171;DHT22;10245;51.344;6.620;2023-03-15T09:04:16;4.10;87.60
20171;DHT22;10245;51.344;6.620;2023-03-15T09:06:39;4.50;88.80
20171;DHT22;10245;51.344;6.620;2023-03-15T09:09:04;4.30;87.10
20171;DHT22;10245;51.344;6.620;2023-03-15T09:11:27;3.90;86.60
20171;DHT22;10245;51.344;6.620;2023-03-15T09:13:51;4.10;87.20
20171;DHT22;10245;51.344;6.620;2023-03-15T09:16:15;4.00;87.30
20171;DHT22;10245;51.344;6.620;2023-03-15T09:18:39;4.30;87.90
20171;DHT22;10245;51.344;6.620;2023-03-15T09:21:05;4.50;87.20
20171;DHT22;10245;51.344;6.620;2023-03-15T09:23:28;5.10;86.30
20171;DHT22;10245;51.344;6.620;2023-03-15T09:25:53;5.20;84.60
20171;DHT22;10245;51.344;6.620;2023-03-15T09:28:17;5.00;83.40
20171;DHT22;10245;51.344;6.620;2023-03-15T09:30:41;5.40;82.80
20171;DHT22;10245;51.344;6.620;2023-03-15T09:33:04;5.50;84.30
20171;DHT22;10245;51.344;6.620;2023-03-15T09:35:28;4.80;81.70
20171;DHT22;10245;51.344;6.620;2023-03-15T09:37:52;5.00;82.40
20171;DHT22;10245;51.344;6.620;2023-03-15T09:40:20;5.10;82.00
20171;DHT22;10245;51.344;6.620;2023-03-15T09:42:58;5.30;81.60
20171;DHT22;10245;51.344;6.620;2023-03-15T09:45:27;5.60;81.00
20171;DHT22;10245;51.344;6.620;2023-03-15T09:48:09;5.20;78.70
20171;DHT22;10245;51.344;6.620;2023-03-15T09:50:38;5.60;79.00
20171;DHT22;10245;51.344;6.620;2023-03-15T09:53:08;5.40;79.30
20171;DHT22;10245;51.344;6.620;2023-03-15T09:55:34;5.00;80.00
20171;DHT22;10245;51.344;6.620;2023-03-15T09:58:01;4.80;79.90
20171;DHT22;10245;51.344;6.620;2023-03-15T10:00:32;4.90;81.50
20171;DHT22;10245;51.344;6.620;2023-03-15T10:03:00;5.10;82.50
20171;DHT22;10245;51.344;6.620;2023-03-15T10:05:34;5.30;79.90
20171;DHT22;10245;51.344;6.620;2023-03-15T10:08:01;5.70;81.00
20171;DHT22;10245;51.344;6.620;2023-03-15T10:10:31;7.00;76.60
20171;DHT22;10245;51.344;6.620;2023-03-15T10:13:05;7.60;77.80
20171;DHT22;10245;51.344;6.620;2023-03-15T10:15:43;7.80;75.50
20171;DHT22;10245;51.344;6.620;2023-03-15T10:18:33;6.90;79.00
20171;DHT22;10245;51.344;6.620;2023-03-15T10:21:10;6.80;76.40
20171;DHT22;10245;51.344;6.620;2023-03-15T10:23:44;6.70;74.90
20171;DHT22;10245;51.344;6.620;2023-03-15T10:26:18;6.50;76.70
20171;DHT22;10245;51.344;6.620;2023-03-15T10:28:46;5.90;77.10
20171;DHT22;10245;51.344;6.620;2023-03-15T10:31:13;5.60;75.00
20171;DHT22;10245;51.344;6.620;2023-03-15T10:33:43;5.70;75.40
20171;DHT22;10245;51.344;6.620;2023-03-15T10:36:13;5.80;74.50
20171;DHT22;10245;51.344;6.620;2023-03-15T10:38:39;6.40;74.50
20171;DHT22;10245;51.344;6.620;2023-03-15T10:41:05;7.10;74.50
20171;DHT22;10245;51.344;6.620;2023-03-15T10:43:32;6.60;74.40
20171;DHT22;10245;51.344;6.620;2023-03-15T10:46:01;6.50;73.40
20171;DHT22;10245;51.344;6.620;2023-03-15T10:48:25;6.50;69.50
20171;DHT22;10245;51.344;6.620;2023-03-15T10:50:49;6.60;68.00
20171;DHT22;10245;51.344;6.620;2023-03-15T10:53:18;6.30;65.50
20171;DHT22;10245;51.344;6.620;2023-03-15T10:55:43;6.50;66.90
20171;DHT22;10245;51.344;6.620;2023-03-15T10:58:24;6.10;68.60
20171;DHT22;10245;51.344;6.620;2023-03-15T11:00:51;7.80;69.00
20171;DHT22;10245;51.344;6.620;2023-03-15T11:03:19;7.70;69.50
20171;DHT22;10245;51.344;6.620;2023-03-15T11:05:45;6.80;62.50
20171;DHT22;10245;51.344;6.620;2023-03-15T11:08:12;6.50;66.70
20171;DHT22;10245;51.344;6.620;2023-03-15T11:10:36;6.50;66.30
20171;DHT22;10245;51.344;6.620;2023-03-15T11:13:11;7.50;68.50
20171;DHT22;10245;51.344;6.620;2023-03-15T11:15:35;8.60;67.60
20171;DHT22;10245;51.344;6.620;2023-03-15T11:17:59;7.80;65.40
20171;DHT22;10245;51.344;6.620;2023-03-15T11:20:28;8.80;63.80
20171;DHT22;10245;51.344;6.620;2023-03-15T11:22:52;9.00;61.40
20171;DHT22;10245;51.344;6.620;2023-03-15T11:25:17;9.30;64.70
20171;DHT22;10245;51.344;6.620;2023-03-15T11:27:41;8.50;62.00
20171;DHT22;10245;51.344;6.620;2023-03-15T11:30:11;8.40;66.70
20171;DHT22;10245;51.344;6.620;2023-03-15T11:32:36;9.20;65.10
20171;DHT22;10245;51.344;6.620;2023-03-15T11:35:02;7.90;59.80
20171;DHT22;10245;51.344;6.620;2023-03-15T11:37:32;8.40;61.00
20171;DHT22;10245;51.344;6.620;2023-03-15T11:40:01;8.00;60.50
20171;DHT22;10245;51.344;6.620;2023-03-15T11:42:36;7.60;62.50
20171;DHT22;10245;51.344;6.620;2023-03-15T11:45:11;7.10;57.70
20171;DHT22;10245;51.344;6.620;2023-03-15T11:47:42;7.10;60.80
20171;DHT22;10245;51.344;6.620;2023-03-15T11:50:13;7.20;64.10
20171;DHT22;10245;51.344;6.620;2023-03-15T11:52:39;7.20;61.40
20171;DHT22;10245;51.344;6.620;2023-03-15T11:55:04;6.90;60.50
20171;DHT22;10245;51.344;6.620;2023-03-15T11:57:37;7.20;56.90
20171;DHT22;10245;51.344;6.620;2023-03-15T12:03:33;8.30;59.00
20171;DHT22;10245;51.344;6.620;2023-03-15T12:08:59;8.50;56.20
20171;DHT22;10245;51.344;6.620;2023-03-15T12:11:40;8.90;58.70
20171;DHT22;10245;51.344;6.620;2023-03-15T12:14:05;9.10;57.30
20171;DHT22;10245;51.344;6.620;2023-03-15T12:16:44;9.20;61.50
20171;DHT22;10245;51.344;6.620;2023-03-15T12:19:13;8.40;57.60
20171;DHT22;10245;51.344;6.620;2023-03-15T12:21:39;8.00;53.40
20171;DHT22;10245;51.344;6.620;2023-03-15T12:24:06;7.20;54.30
20171;DHT22;10245;51.344;6.620;2023-03-15T12:26:40;7.30;57.00
20171;DHT22;10245;51.344;6.620;2023-03-15T12:29:11;7.40;59.50
20171;DHT22;10245;51.344;6.620;2023-03-15T12:32:02;7.60;61.50
20171;DHT22;10245;51.344;6.620;2023-03-15T12:34:34;7.70;59.80
20171;DHT22;10245;51.344;6.620;2023-03-15T12:37:03;8.00;61.90
20171;DHT22;10245;51.344;6.620;2023-03-15T12:39:40;8.00;61.90
20171;DHT22;10245;51.344;6.620;2023-03-15T12:45:36;9.20;60.10
20171;DHT22;10245;51.344;6.620;2023-03-15T12:48:20;8.60;54.30
20171;DHT22;10245;51.344;6.620;2023-03-15T12:51:09;8.70;58.20
20171;DHT22;10245;51.344;6.620;2023-03-15T12:56:40;8.00;50.10
20171;DHT22;10245;51.344;6.620;2023-03-15T12:59:22;7.80;53.00
20171;DHT22;10245;51.344;6.620;2023-03-15T13:01:50;8.20;53.50
20171;DHT22;10245;51.344;6.620;2023-03-15T13:04:14;7.80;51.30
20171;DHT22;10245;51.344;6.620;2023-03-15T13:07:03;7.90;51.80
20171;DHT22;10245;51.344;6.620;2023-03-15T13:09:53;8.30;59.80
20171;DHT22;10245;51.344;6.620;2023-03-15T13:12:31;8.70;50.90
20171;DHT22;10245;51.344;6.620;2023-03-15T13:15:02;9.20;52.80
20171;DHT22;10245;51.344;6.620;2023-03-15T13:17:34;9.40;54.30
20171;DHT22;10245;51.344;6.620;2023-03-15T13:20:36;9.50;46.40
20171;DHT22;10245;51.344;6.620;2023-03-15T13:23:08;8.30;43.40
20171;DHT22;10245;51.344;6.620;2023-03-15T13:25:43;8.70;46.90
20171;DHT22;10245;51.344;6.620;2023-03-15T13:28:22;9.20;45.10
20171;DHT22;10245;51.344;6.620;2023-03-15T13:30:48;9.00;43.00
20171;DHT22;10245;51.344;6.620;2023-03-15T13:33:20;9.10;45.00
20171;DHT22;10245;51.344;6.620;2023-03-15T13:35:47;9.00;42.40
20171;DHT22;10245;51.344;6.620;2023-03-15T13:38:23;9.00;42.20
20171;DHT22;10245;51.344;6.620;2023-03-15T13:40:52;8.80;45.30
20171;DHT22;10245;51.344;6.620;2023-03-15T13:43:16;9.10;51.60
20171;DHT22;10245;51.344;6.620;2023-03-15T13:45:43;9.20;46.10
20171;DHT22;10245;51.344;6.620;2023-03-15T13:48:07;9.10;46.50
20171;DHT22;10245;51.344;6.620;2023-03-15T13:50:31;9.10;48.90
20171;DHT22;10245;51.344;6.620;2023-03-15T13:52:55;9.00;49.50
20171;DHT22;10245;51.344;6.620;2023-03-15T13:55:21;8.70;45.00
20171;DHT22;10245;51.344;6.620;2023-03-15T13:57:46;8.80;50.00
20171;DHT22;10245;51.344;6.620;2023-03-15T14:00:13;8.80;44.50
20171;DHT22;10245;51.344;6.620;2023-03-15T14:02:46;8.70;45.50
20171;DHT22;10245;51.344;6.620;2023-03-15T14:05:12;9.20;49.40
20171;DHT22;10245;51.344;6.620;2023-03-15T14:07:39;9.50;43.40
20171;DHT22;10245;51.344;6.620;2023-03-15T14:10:20;9.70;48.50
20171;DHT22;10245;51.344;6.620;2023-03-15T14:12:45;9.90;53.40
20171;DHT22;10245;51.344;6.620;2023-03-15T14:15:14;9.00;44.80
20171;DHT22;10245;51.344;6.620;2023-03-15T14:17:51;8.40;45.10
20171;DHT22;10245;51.344;6.620;2023-03-15T14:20:18;8.60;47.20
20171;DHT22;10245;51.344;6.620;2023-03-15T14:22:41;8.50;46.70
20171;DHT22;10245;51.344;6.620;2023-03-15T14:25:18;8.50;46.80
20171;DHT22;10245;51.344;6.620;2023-03-15T14:27:43;8.50;45.60
20171;DHT22;10245;51.344;6.620;2023-03-15T14:30:17;8.70;46.40
20171;DHT22;10245;51.344;6.620;2023-03-15T14:32:52;9.20;49.20
20171;DHT22;10245;51.344;6.620;2023-03-15T14:35:21;9.10;42.60
20171;DHT22;10245;51.344;6.620;2023-03-15T14:37:46;9.30;46.00
20171;DHT22;10245;51.344;6.620;2023-03-15T14:40:16;9.60;47.50
20171;DHT22;10245;51.344;6.620;2023-03-15T14:42:42;9.60;45.10
20171;DHT22;10245;51.344;6.620;2023-03-15T14:45:06;8.80;42.40
20171;DHT22;10245;51.344;6.620;2023-03-15T14:47:31;9.20;42.70
20171;DHT22;10245;51.344;6.620;2023-03-15T14:50:02;9.20;41.70
20171;DHT22;10245;51.344;6.620;2023-03-15T14:52:28;9.40;47.10
20171;DHT22;10245;51.344;6.620;2023-03-15T14:54:53;9.00;45.40
20171;DHT22;10245;51.344;6.620;2023-03-15T14:57:17;9.40;46.60
20171;DHT22;10245;51.344;6.620;2023-03-15T14:59:40;9.10;43.50
20171;DHT22;10245;51.344;6.620;2023-03-15T15:02:04;9.10;48.00
20171;DHT22;10245;51.344;6.620;2023-03-15T15:04:31;8.90;42.10
20171;DHT22;10245;51.344;6.620;2023-03-15T15:06:57;9.30;45.30
20171;DHT22;10245;51.344;6.620;2023-03-15T15:09:22;8.90;42.90
20171;DHT22;10245;51.344;6.620;2023-03-15T15:11:48;9.20;43.00
20171;DHT22;10245;51.344;6.620;2023-03-15T15:14:12;8.80;42.90
20171;DHT22;10245;51.344;6.620;2023-03-15T15:16:36;8.50;44.40
20171;DHT22;10245;51.344;6.620;2023-03-15T15:18:59;8.50;45.40
20171;DHT22;10245;51.344;6.620;2023-03-15T15:21:26;8.70;47.70
20171;DHT22;10245;51.344;6.620;2023-03-15T15:23:56;8.90;44.40
20171;DHT22;10245;51.344;6.620;2023-03-15T15:26:21;9.10;48.00
20171;DHT22;10245;51.344;6.620;2023-03-15T15:28:47;8.80;44.40
20171;DHT22;10245;51.344;6.620;2023-03-15T15:31:14;9.00;45.30
20171;DHT22;10245;51.344;6.620;2023-03-15T15:33:39;8.80;44.00
20171;DHT22;10245;51.344;6.620;2023-03-15T15:36:09;8.70;43.20
20171;DHT22;10245;51.344;6.620;2023-03-15T15:38:34;8.60;42.30
20171;DHT22;10245;51.344;6.620;2023-03-15T15:41:01;8.50;43.90
20171;DHT22;10245;51.344;6.620;2023-03-15T15:43:24;8.80;47.20
20171;DHT22;10245;51.344;6.620;2023-03-15T15:45:48;8.70;41.60
20171;DHT22;10245;51.344;6.620;2023-03-15T15:48:11;8.60;43.00
20171;DHT22;10245;51.344;6.620;2023-03-15T15:50:35;8.70;43.70
20171;DHT22;10245;51.344;6.620;2023-03-15T15:53:00;8.60;43.30
20171;DHT22;10245;51.344;6.620;2023-03-15T15:55:28;8.70;45.30
20171;DHT22;10245;51.344;6.620;2023-03-15T15:57:56;8.50;43.00
20171;DHT22;10245;51.344;6.620;2023-03-15T16:00:21;8.70;42.30
20171;DHT22;10245;51.344;6.620;2023-03-15T16:02:46;8.90;44.60
20171;DHT22;10245;51.344;6.620;2023-03-15T16:05:10;8.80;41.30
20171;DHT22;10245;51.344;6.620;2023-03-15T16:07:33;8.90;45.20
20171;DHT22;10245;51.344;6.620;2023-03-15T16:09:58;9.00;43.00